Mr Farrel — WDF2273 — position and weather

sailwx.info

Track history (hours):
 
Tides and Currents Weather Stations Pressure Air Temp Water Temp Dewpoint Dewpoint Depression Visibility Wind Speed Wind Dir Waves Ship Positions

Mr Farrel

Owner: Crosby Marine Transportation LLC, Golden Meadow, LA. More information available from US FCC via Universal Licensing System and Coast Guard Vessel Documentation Center.

Last reported at 2017-Oct-14 14:27 UTC. Time now 2017-Oct-20 01:34 UTC.
Position N 29°58' W 093°52'.

; draft 3 m.

Type: Tug. MMSI: 367426830.

Date/timePositionNaut miles runAvg speedWind from/ knotsBaromVisibWave heightAir tempDewpointWater temp
2017-Oct-14 14:27N 29°58' W 093°52'4 0.6
2017-Oct-14 07:44N 29°60' W 093°56'0 0.0
2017-Oct-13 08:41N 29°60' W 093°56'0 0.0
2017-Oct-13 08:25N 29°60' W 093°56'0 0.0
2017-Oct-13 08:00N 29°60' W 093°56'3 0.2
2017-Oct-12 13:41N 29°59' W 093°53'9 2.1
2017-Oct-12 09:30N 30°03' W 093°44'3 2.3
2017-Oct-12 08:20N 30°04' W 093°41'1 1.9
2017-Oct-12 07:56N 30°04' W 093°40'1 1.5
2017-Oct-12 07:29N 30°04' W 093°39'1 2.5
2017-Oct-12 07:00N 30°04' W 093°38'1 2.5
2017-Oct-12 06:30N 30°04' W 093°36'1 2.6
2017-Oct-12 06:00N 30°04' W 093°35'1 2.5
2017-Oct-12 05:27N 30°04' W 093°33'1 2.5
2017-Oct-12 05:00N 30°04' W 093°32'1 2.6
2017-Oct-12 04:30N 30°04' W 093°30'1 2.6
2017-Oct-12 04:00N 30°04' W 093°29'1 2.7
2017-Oct-12 03:30N 30°04' W 093°27'1 2.4
2017-Oct-12 03:00N 30°04' W 093°26'1 2.5
2017-Oct-12 02:30N 30°04' W 093°24'1 2.6
2017-Oct-12 02:00N 30°04' W 093°23'1 2.1
2017-Oct-12 01:30N 30°04' W 093°22'1 2.0
2017-Oct-12 01:00N 30°04' W 093°21'1 2.0
2017-Oct-12 00:30N 30°05' W 093°20'1 2.3
2017-Oct-12 00:00N 30°06' W 093°20'2 3.1
2017-Oct-11 23:30N 30°08' W 093°20'1 1.5
2017-Oct-11 23:00N 30°08' W 093°20'0 0.3
2017-Oct-11 22:30N 30°08' W 093°20'0 0.0
2017-Oct-11 22:00N 30°08' W 093°20'0 0.0
2017-Oct-11 21:30N 30°08' W 093°20'0 0.0
2017-Oct-11 21:00N 30°08' W 093°20'0 0.0
2017-Oct-11 20:30N 30°08' W 093°20'0 0.0
2017-Oct-11 20:00N 30°08' W 093°20'0 1.0
2017-Oct-11 19:30N 30°09' W 093°20'0 0.6
2017-Oct-11 19:00N 30°08' W 093°20'0 0.4
2017-Oct-11 18:30N 30°08' W 093°20'0 0.0
2017-Oct-11 18:00N 30°08' W 093°20'0 0.0
2017-Oct-11 17:30N 30°08' W 093°20'0 0.0
2017-Oct-11 17:00N 30°08' W 093°20'89 4.3
2017-Oct-10 20:17N 29°30' W 094°52'2 8.3
2017-Oct-10 20:00N 29°31' W 094°53'4 7.8
2017-Oct-10 19:30N 29°35' W 094°56'4 7.7
2017-Oct-10 19:00N 29°38' W 094°58'4 8.1
2017-Oct-10 18:30N 29°42' W 094°60'4 7.1
2017-Oct-10 18:00N 29°44' W 095°03'4 0.9
2017-Oct-10 13:39N 29°47' W 095°06'0 0.0
2017-Oct-10 13:09N 29°47' W 095°06'0 0.0
2017-Oct-10 12:47N 29°47' W 095°06'0 0.0
2017-Oct-10 11:36N 29°47' W 095°06'0 0.0
2017-Oct-10 11:20N 29°47' W 095°06'0 0.0
2017-Oct-10 10:54N 29°47' W 095°06'0 0.0
2017-Oct-10 10:28N 29°47' W 095°06'0 0.0
2017-Oct-10 09:53N 29°47' W 095°06'0 0.0
2017-Oct-10 09:18N 29°47' W 095°06'0 0.0
2017-Oct-10 06:45N 29°47' W 095°06'0 0.0
2017-Oct-10 06:29N 29°47' W 095°06'0 0.0
2017-Oct-10 06:00N 29°47' W 095°06'0 0.0
2017-Oct-10 05:30N 29°47' W 095°06'0 0.0
2017-Oct-10 04:59N 29°47' W 095°06'0 0.0
2017-Oct-10 04:30N 29°47' W 095°06'0 0.0
2017-Oct-10 04:00N 29°47' W 095°06'0 0.0
2017-Oct-10 03:30N 29°47' W 095°06'0 0.0
2017-Oct-10 02:59N 29°47' W 095°06'0 0.0
2017-Oct-10 02:29N 29°47' W 095°06'0 0.0
2017-Oct-10 01:58N 29°47' W 095°06'0 0.0
2017-Oct-10 01:22N 29°47' W 095°06'0 0.0
2017-Oct-10 00:58N 29°47' W 095°06'0 0.0
2017-Oct-09 15:06N 29°47' W 095°06'0 0.0
2017-Oct-09 14:58N 29°47' W 095°06'0 0.0
2017-Oct-09 14:30N 29°47' W 095°06'0 0.0
2017-Oct-09 13:49N 29°47' W 095°06'0 0.0
2017-Oct-09 13:25N 29°47' W 095°06'0 0.0
2017-Oct-09 12:46N 29°47' W 095°06'0 0.0
2017-Oct-09 12:27N 29°47' W 095°06'0 0.0
2017-Oct-09 11:59N 29°47' W 095°06'0 0.0
2017-Oct-09 11:28N 29°47' W 095°06'0 0.0
2017-Oct-09 10:59N 29°47' W 095°06'0 0.0
2017-Oct-09 10:21N 29°47' W 095°06'0 0.0
2017-Oct-09 09:59N 29°47' W 095°06'0 0.0
2017-Oct-09 09:26N 29°47' W 095°06'0 0.0
2017-Oct-09 08:57N 29°47' W 095°06'0 0.0
2017-Oct-09 08:22N 29°47' W 095°06'0 0.0
2017-Oct-09 07:56N 29°47' W 095°06'0 0.0
2017-Oct-09 07:30N 29°47' W 095°06'0 0.0
2017-Oct-09 06:36N 29°47' W 095°06'0 0.1
2017-Oct-09 06:30N 29°47' W 095°06'0 0.0
2017-Oct-09 06:00N 29°47' W 095°06'0 0.0
2017-Oct-09 05:28N 29°47' W 095°06'0 0.0
2017-Oct-09 04:59N 29°47' W 095°06'0 0.0
2017-Oct-09 04:26N 29°47' W 095°06'0 0.0
2017-Oct-09 04:00N 29°47' W 095°06'0 0.0
2017-Oct-09 03:30N 29°47' W 095°06'0 0.0
2017-Oct-09 03:00N 29°47' W 095°06'0 0.0
2017-Oct-09 02:30N 29°47' W 095°06'0 0.0
2017-Oct-09 01:52N 29°47' W 095°06'0 0.0
2017-Oct-09 01:30N 29°47' W 095°06'0 0.0
2017-Oct-09 00:58N 29°47' W 095°06'0 0.0
2017-Oct-09 00:29N 29°47' W 095°06'0 0.0
2017-Oct-08 23:56N 29°47' W 095°06'0 0.0
2017-Oct-08 23:28N 29°47' W 095°06'0 0.0
2017-Oct-08 23:00N 29°47' W 095°06'0 0.0
2017-Oct-08 22:30N 29°47' W 095°06'0 0.0
2017-Oct-08 18:55N 29°47' W 095°06'0 0.0
2017-Oct-08 18:28N 29°47' W 095°06'0 0.0
2017-Oct-08 17:51N 29°47' W 095°06'1 0.3
2017-Oct-08 14:04N 29°46' W 095°06'0 2.6
2017-Oct-08 13:57N 29°46' W 095°05'3 6.0
2017-Oct-08 13:30N 29°44' W 095°08'1 2.7
2017-Oct-08 13:00N 29°44' W 095°09'0 0.0
2017-Oct-08 12:30N 29°44' W 095°09'0 0.0
2017-Oct-08 11:58N 29°44' W 095°09'0 0.2
2017-Oct-08 11:30N 29°44' W 095°10'0 0.1
2017-Oct-08 11:00N 29°44' W 095°09'0 0.1
2017-Oct-08 10:30N 29°44' W 095°10'0 0.9
2017-Oct-08 10:00N 29°44' W 095°09'3 6.0
2017-Oct-08 09:29N 29°45' W 095°06'2 4.8
2017-Oct-08 08:58N 29°44' W 095°03'3 5.4
2017-Oct-08 08:30N 29°42' W 095°01'3 5.6
2017-Oct-08 08:00N 29°41' W 094°59'3 6.5
2017-Oct-08 07:30N 29°37' W 094°58'4 6.8
2017-Oct-08 06:52N 29°34' W 094°55'5 0.1
2017-Oct-06 17:40N 29°30' W 094°52'1 7.3
2017-Oct-06 17:29N 29°31' W 094°53'3 7.1
2017-Oct-06 17:00N 29°34' W 094°55'3 7.0
2017-Oct-06 16:30N 29°36' W 094°57'4 7.1
2017-Oct-06 16:00N 29°40' W 094°59'4 6.9
2017-Oct-06 15:30N 29°42' W 095°01'3 5.4
2017-Oct-06 15:00N 29°44' W 095°03'3 5.7
2017-Oct-06 14:28N 29°46' W 095°06'1 1.2
2017-Oct-06 14:00N 29°47' W 095°06'0 0.0
2017-Oct-06 13:30N 29°47' W 095°06'0 0.0
2017-Oct-06 13:00N 29°47' W 095°06'0 0.0
2017-Oct-06 12:30N 29°47' W 095°06'0 0.0
2017-Oct-06 11:50N 29°47' W 095°06'0 0.0
2017-Oct-06 11:30N 29°47' W 095°06'0 0.0
2017-Oct-06 10:55N 29°47' W 095°06'0 0.0
2017-Oct-06 10:31N 29°47' W 095°06'0 0.0
2017-Oct-06 09:53N 29°47' W 095°06'0 0.0
2017-Oct-06 09:23N 29°47' W 095°06'0 0.0
2017-Oct-06 08:59N 29°47' W 095°06'0 0.0
2017-Oct-06 08:30N 29°47' W 095°06'0 0.0
2017-Oct-06 08:00N 29°47' W 095°06'0 0.0
2017-Oct-06 07:30N 29°47' W 095°06'0 0.0
2017-Oct-06 06:59N 29°47' W 095°06'0 0.0
2017-Oct-06 06:29N 29°47' W 095°06'0 0.0
2017-Oct-06 06:00N 29°47' W 095°06'0 0.0
2017-Oct-06 05:30N 29°47' W 095°06'0 0.0
2017-Oct-06 05:00N 29°47' W 095°06'0 0.0
2017-Oct-06 04:10N 29°47' W 095°06'0 0.0
2017-Oct-06 03:58N 29°47' W 095°06'0 0.0
2017-Oct-06 03:06N 29°47' W 095°06'0 0.1
2017-Oct-06 03:00N 29°47' W 095°06'0 0.0
2017-Oct-06 02:20N 29°47' W 095°06'0 0.0
2017-Oct-06 01:59N 29°47' W 095°06'0 0.0
2017-Oct-06 01:30N 29°47' W 095°06'0 0.0
2017-Oct-06 01:01N 29°47' W 095°06'0 0.0
2017-Oct-06 00:29N 29°47' W 095°06'0 0.0
2017-Oct-05 23:49N 29°47' W 095°06'0 0.0
2017-Oct-05 23:16N 29°47' W 095°06'0 0.0
2017-Oct-05 22:55N 29°47' W 095°06'0 0.0
2017-Oct-05 21:56N 29°47' W 095°06'0 0.0
2017-Oct-05 19:30N 29°47' W 095°06'0 0.0
2017-Oct-05 11:47N 29°47' W 095°06'0 0.0
2017-Oct-05 11:26N 29°47' W 095°06'0 0.0
2017-Oct-05 10:59N 29°47' W 095°06'1 0.6
2017-Oct-05 09:17N 29°46' W 095°05'1 0.3
2017-Oct-05 06:41N 29°46' W 095°06'1 3.2
2017-Oct-05 06:26N 29°45' W 095°06'3 6.4
2017-Oct-05 06:00N 29°44' W 095°09'3 5.6
2017-Oct-05 05:29N 29°44' W 095°12'3 5.7
2017-Oct-05 04:57N 29°44' W 095°16'0 0.9
2017-Oct-05 04:30N 29°44' W 095°16'0 0.0
2017-Oct-05 04:00N 29°44' W 095°16'0 0.0
2017-Oct-05 03:30N 29°44' W 095°16'0 0.0
2017-Oct-05 03:00N 29°44' W 095°16'0 0.0
2017-Oct-05 02:30N 29°44' W 095°16'0 0.0
2017-Oct-05 02:00N 29°44' W 095°16'0 0.0
2017-Oct-05 01:30N 29°44' W 095°16'0 0.0
2017-Oct-05 01:00N 29°44' W 095°16'0 0.0
2017-Oct-05 00:30N 29°44' W 095°16'0 0.0
2017-Oct-05 00:00N 29°44' W 095°16'0 0.0
2017-Oct-04 23:30N 29°44' W 095°16'0 0.0
2017-Oct-04 23:00N 29°44' W 095°16'0 0.0
2017-Oct-04 22:30N 29°44' W 095°16'0 0.0
2017-Oct-04 22:00N 29°44' W 095°16'0 0.4
2017-Oct-04 21:30N 29°44' W 095°17'0 0.0
2017-Oct-04 21:00N 29°44' W 095°17'0 0.0
2017-Oct-04 20:30N 29°44' W 095°17'0 0.0
2017-Oct-04 20:00N 29°44' W 095°17'0 0.0
2017-Oct-04 19:30N 29°44' W 095°17'0 0.0
2017-Oct-04 19:00N 29°44' W 095°17'0 0.4
2017-Oct-04 18:29N 29°44' W 095°16'0 0.1
2017-Oct-04 18:00N 29°43' W 095°16'0 0.0
2017-Oct-04 17:29N 29°44' W 095°16'0 0.0
2017-Oct-04 17:00N 29°43' W 095°16'0 0.0
2017-Oct-04 16:30N 29°43' W 095°16'0 0.1
2017-Oct-04 16:00N 29°44' W 095°16'0 0.1
2017-Oct-04 15:28N 29°43' W 095°16'  
Track history (hours):
 
Tides and Currents Weather Stations Pressure Air Temp Water Temp Dewpoint Dewpoint Depression Visibility Wind Speed Wind Dir Waves Ship Positions

Mr Farrel

Owner: Crosby Marine Transportation LLC, Golden Meadow, LA. More information available from US FCC via Universal Licensing System and Coast Guard Vessel Documentation Center.

Last reported at 2017-Oct-14 14:27 UTC. Time now 2017-Oct-20 01:34 UTC.
Position N 29°58' W 093°52'.

; draft 3 m.

Type: Tug. MMSI: 367426830.

Date/timePositionNaut miles runAvg speedWind from/ knotsBaromVisibWave heightAir tempDewpointWater temp
2017-Oct-14 14:27N 29°58' W 093°52'4 0.6
2017-Oct-14 07:44N 29°60' W 093°56'0 0.0
2017-Oct-13 08:41N 29°60' W 093°56'0 0.0
2017-Oct-13 08:25N 29°60' W 093°56'0 0.0
2017-Oct-13 08:00N 29°60' W 093°56'3 0.2
2017-Oct-12 13:41N 29°59' W 093°53'9 2.1
2017-Oct-12 09:30N 30°03' W 093°44'3 2.3
2017-Oct-12 08:20N 30°04' W 093°41'1 1.9
2017-Oct-12 07:56N 30°04' W 093°40'1 1.5
2017-Oct-12 07:29N 30°04' W 093°39'1 2.5
2017-Oct-12 07:00N 30°04' W 093°38'1 2.5
2017-Oct-12 06:30N 30°04' W 093°36'1 2.6
2017-Oct-12 06:00N 30°04' W 093°35'1 2.5
2017-Oct-12 05:27N 30°04' W 093°33'1 2.5
2017-Oct-12 05:00N 30°04' W 093°32'1 2.6
2017-Oct-12 04:30N 30°04' W 093°30'1 2.6
2017-Oct-12 04:00N 30°04' W 093°29'1 2.7
2017-Oct-12 03:30N 30°04' W 093°27'1 2.4
2017-Oct-12 03:00N 30°04' W 093°26'1 2.5
2017-Oct-12 02:30N 30°04' W 093°24'1 2.6
2017-Oct-12 02:00N 30°04' W 093°23'1 2.1
2017-Oct-12 01:30N 30°04' W 093°22'1 2.0
2017-Oct-12 01:00N 30°04' W 093°21'1 2.0
2017-Oct-12 00:30N 30°05' W 093°20'1 2.3
2017-Oct-12 00:00N 30°06' W 093°20'2 3.1
2017-Oct-11 23:30N 30°08' W 093°20'1 1.5
2017-Oct-11 23:00N 30°08' W 093°20'0 0.3
2017-Oct-11 22:30N 30°08' W 093°20'0 0.0
2017-Oct-11 22:00N 30°08' W 093°20'0 0.0
2017-Oct-11 21:30N 30°08' W 093°20'0 0.0
2017-Oct-11 21:00N 30°08' W 093°20'0 0.0
2017-Oct-11 20:30N 30°08' W 093°20'0 0.0
2017-Oct-11 20:00N 30°08' W 093°20'0 1.0
2017-Oct-11 19:30N 30°09' W 093°20'0 0.6
2017-Oct-11 19:00N 30°08' W 093°20'0 0.4
2017-Oct-11 18:30N 30°08' W 093°20'0 0.0
2017-Oct-11 18:00N 30°08' W 093°20'0 0.0
2017-Oct-11 17:30N 30°08' W 093°20'0 0.0
2017-Oct-11 17:00N 30°08' W 093°20'89 4.3
2017-Oct-10 20:17N 29°30' W 094°52'2 8.3
2017-Oct-10 20:00N 29°31' W 094°53'4 7.8
2017-Oct-10 19:30N 29°35' W 094°56'4 7.7
2017-Oct-10 19:00N 29°38' W 094°58'4 8.1
2017-Oct-10 18:30N 29°42' W 094°60'4 7.1
2017-Oct-10 18:00N 29°44' W 095°03'4 0.9
2017-Oct-10 13:39N 29°47' W 095°06'0 0.0
2017-Oct-10 13:09N 29°47' W 095°06'0 0.0
2017-Oct-10 12:47N 29°47' W 095°06'0 0.0
2017-Oct-10 11:36N 29°47' W 095°06'0 0.0
2017-Oct-10 11:20N 29°47' W 095°06'0 0.0
2017-Oct-10 10:54N 29°47' W 095°06'0 0.0
2017-Oct-10 10:28N 29°47' W 095°06'0 0.0
2017-Oct-10 09:53N 29°47' W 095°06'0 0.0
2017-Oct-10 09:18N 29°47' W 095°06'0 0.0
2017-Oct-10 06:45N 29°47' W 095°06'0 0.0
2017-Oct-10 06:29N 29°47' W 095°06'0 0.0
2017-Oct-10 06:00N 29°47' W 095°06'0 0.0
2017-Oct-10 05:30N 29°47' W 095°06'0 0.0
2017-Oct-10 04:59N 29°47' W 095°06'0 0.0
2017-Oct-10 04:30N 29°47' W 095°06'0 0.0
2017-Oct-10 04:00N 29°47' W 095°06'0 0.0
2017-Oct-10 03:30N 29°47' W 095°06'0 0.0
2017-Oct-10 02:59N 29°47' W 095°06'0 0.0
2017-Oct-10 02:29N 29°47' W 095°06'0 0.0
2017-Oct-10 01:58N 29°47' W 095°06'0 0.0
2017-Oct-10 01:22N 29°47' W 095°06'0 0.0
2017-Oct-10 00:58N 29°47' W 095°06'0 0.0
2017-Oct-09 15:06N 29°47' W 095°06'0 0.0
2017-Oct-09 14:58N 29°47' W 095°06'0 0.0
2017-Oct-09 14:30N 29°47' W 095°06'0 0.0
2017-Oct-09 13:49N 29°47' W 095°06'0 0.0
2017-Oct-09 13:25N 29°47' W 095°06'0 0.0
2017-Oct-09 12:46N 29°47' W 095°06'0 0.0
2017-Oct-09 12:27N 29°47' W 095°06'0 0.0
2017-Oct-09 11:59N 29°47' W 095°06'0 0.0
2017-Oct-09 11:28N 29°47' W 095°06'0 0.0
2017-Oct-09 10:59N 29°47' W 095°06'0 0.0
2017-Oct-09 10:21N 29°47' W 095°06'0 0.0
2017-Oct-09 09:59N 29°47' W 095°06'0 0.0
2017-Oct-09 09:26N 29°47' W 095°06'0 0.0
2017-Oct-09 08:57N 29°47' W 095°06'0 0.0
2017-Oct-09 08:22N 29°47' W 095°06'0 0.0
2017-Oct-09 07:56N 29°47' W 095°06'0 0.0
2017-Oct-09 07:30N 29°47' W 095°06'0 0.0
2017-Oct-09 06:36N 29°47' W 095°06'0 0.1
2017-Oct-09 06:30N 29°47' W 095°06'0 0.0
2017-Oct-09 06:00N 29°47' W 095°06'0 0.0
2017-Oct-09 05:28N 29°47' W 095°06'0 0.0
2017-Oct-09 04:59N 29°47' W 095°06'0 0.0
2017-Oct-09 04:26N 29°47' W 095°06'0 0.0
2017-Oct-09 04:00N 29°47' W 095°06'0 0.0
2017-Oct-09 03:30N 29°47' W 095°06'0 0.0
2017-Oct-09 03:00N 29°47' W 095°06'0 0.0
2017-Oct-09 02:30N 29°47' W 095°06'0 0.0
2017-Oct-09 01:52N 29°47' W 095°06'0 0.0
2017-Oct-09 01:30N 29°47' W 095°06'0 0.0
2017-Oct-09 00:58N 29°47' W 095°06'0 0.0
2017-Oct-09 00:29N 29°47' W 095°06'0 0.0
2017-Oct-08 23:56N 29°47' W 095°06'0 0.0
2017-Oct-08 23:28N 29°47' W 095°06'0 0.0
2017-Oct-08 23:00N 29°47' W 095°06'0 0.0
2017-Oct-08 22:30N 29°47' W 095°06'0 0.0
2017-Oct-08 18:55N 29°47' W 095°06'0 0.0
2017-Oct-08 18:28N 29°47' W 095°06'0 0.0
2017-Oct-08 17:51N 29°47' W 095°06'1 0.3
2017-Oct-08 14:04N 29°46' W 095°06'0 2.6
2017-Oct-08 13:57N 29°46' W 095°05'3 6.0
2017-Oct-08 13:30N 29°44' W 095°08'1 2.7
2017-Oct-08 13:00N 29°44' W 095°09'0 0.0
2017-Oct-08 12:30N 29°44' W 095°09'0 0.0
2017-Oct-08 11:58N 29°44' W 095°09'0 0.2
2017-Oct-08 11:30N 29°44' W 095°10'0 0.1
2017-Oct-08 11:00N 29°44' W 095°09'0 0.1
2017-Oct-08 10:30N 29°44' W 095°10'0 0.9
2017-Oct-08 10:00N 29°44' W 095°09'3 6.0
2017-Oct-08 09:29N 29°45' W 095°06'2 4.8
2017-Oct-08 08:58N 29°44' W 095°03'3 5.4
2017-Oct-08 08:30N 29°42' W 095°01'3 5.6
2017-Oct-08 08:00N 29°41' W 094°59'3 6.5
2017-Oct-08 07:30N 29°37' W 094°58'4 6.8
2017-Oct-08 06:52N 29°34' W 094°55'5 0.1
2017-Oct-06 17:40N 29°30' W 094°52'1 7.3
2017-Oct-06 17:29N 29°31' W 094°53'3 7.1
2017-Oct-06 17:00N 29°34' W 094°55'3 7.0
2017-Oct-06 16:30N 29°36' W 094°57'4 7.1
2017-Oct-06 16:00N 29°40' W 094°59'4 6.9
2017-Oct-06 15:30N 29°42' W 095°01'3 5.4
2017-Oct-06 15:00N 29°44' W 095°03'3 5.7
2017-Oct-06 14:28N 29°46' W 095°06'1 1.2
2017-Oct-06 14:00N 29°47' W 095°06'0 0.0
2017-Oct-06 13:30N 29°47' W 095°06'0 0.0
2017-Oct-06 13:00N 29°47' W 095°06'0 0.0
2017-Oct-06 12:30N 29°47' W 095°06'0 0.0
2017-Oct-06 11:50N 29°47' W 095°06'0 0.0
2017-Oct-06 11:30N 29°47' W 095°06'0 0.0
2017-Oct-06 10:55N 29°47' W 095°06'0 0.0
2017-Oct-06 10:31N 29°47' W 095°06'0 0.0
2017-Oct-06 09:53N 29°47' W 095°06'0 0.0
2017-Oct-06 09:23N 29°47' W 095°06'0 0.0
2017-Oct-06 08:59N 29°47' W 095°06'0 0.0
2017-Oct-06 08:30N 29°47' W 095°06'0 0.0
2017-Oct-06 08:00N 29°47' W 095°06'0 0.0
2017-Oct-06 07:30N 29°47' W 095°06'0 0.0
2017-Oct-06 06:59N 29°47' W 095°06'0 0.0
2017-Oct-06 06:29N 29°47' W 095°06'0 0.0
2017-Oct-06 06:00N 29°47' W 095°06'0 0.0
2017-Oct-06 05:30N 29°47' W 095°06'0 0.0
2017-Oct-06 05:00N 29°47' W 095°06'0 0.0
2017-Oct-06 04:10N 29°47' W 095°06'0 0.0
2017-Oct-06 03:58N 29°47' W 095°06'0 0.0
2017-Oct-06 03:06N 29°47' W 095°06'0 0.1
2017-Oct-06 03:00N 29°47' W 095°06'0 0.0
2017-Oct-06 02:20N 29°47' W 095°06'0 0.0
2017-Oct-06 01:59N 29°47' W 095°06'0 0.0
2017-Oct-06 01:30N 29°47' W 095°06'0 0.0
2017-Oct-06 01:01N 29°47' W 095°06'0 0.0
2017-Oct-06 00:29N 29°47' W 095°06'0 0.0
2017-Oct-05 23:49N 29°47' W 095°06'0 0.0
2017-Oct-05 23:16N 29°47' W 095°06'0 0.0
2017-Oct-05 22:55N 29°47' W 095°06'0 0.0
2017-Oct-05 21:56N 29°47' W 095°06'0 0.0
2017-Oct-05 19:30N 29°47' W 095°06'0 0.0
2017-Oct-05 11:47N 29°47' W 095°06'0 0.0
2017-Oct-05 11:26N 29°47' W 095°06'0 0.0
2017-Oct-05 10:59N 29°47' W 095°06'1 0.6
2017-Oct-05 09:17N 29°46' W 095°05'1 0.3
2017-Oct-05 06:41N 29°46' W 095°06'1 3.2
2017-Oct-05 06:26N 29°45' W 095°06'3 6.4
2017-Oct-05 06:00N 29°44' W 095°09'3 5.6
2017-Oct-05 05:29N 29°44' W 095°12'3 5.7
2017-Oct-05 04:57N 29°44' W 095°16'0 0.9
2017-Oct-05 04:30N 29°44' W 095°16'0 0.0
2017-Oct-05 04:00N 29°44' W 095°16'0 0.0
2017-Oct-05 03:30N 29°44' W 095°16'0 0.0
2017-Oct-05 03:00N 29°44' W 095°16'0 0.0
2017-Oct-05 02:30N 29°44' W 095°16'0 0.0
2017-Oct-05 02:00N 29°44' W 095°16'0 0.0
2017-Oct-05 01:30N 29°44' W 095°16'0 0.0
2017-Oct-05 01:00N 29°44' W 095°16'0 0.0
2017-Oct-05 00:30N 29°44' W 095°16'0 0.0
2017-Oct-05 00:00N 29°44' W 095°16'0 0.0
2017-Oct-04 23:30N 29°44' W 095°16'0 0.0
2017-Oct-04 23:00N 29°44' W 095°16'0 0.0
2017-Oct-04 22:30N 29°44' W 095°16'0 0.0
2017-Oct-04 22:00N 29°44' W 095°16'0 0.4
2017-Oct-04 21:30N 29°44' W 095°17'0 0.0
2017-Oct-04 21:00N 29°44' W 095°17'0 0.0
2017-Oct-04 20:30N 29°44' W 095°17'0 0.0
2017-Oct-04 20:00N 29°44' W 095°17'0 0.0
2017-Oct-04 19:30N 29°44' W 095°17'0 0.0
2017-Oct-04 19:00N 29°44' W 095°17'0 0.4
2017-Oct-04 18:29N 29°44' W 095°16'0 0.1
2017-Oct-04 18:00N 29°43' W 095°16'0 0.0
2017-Oct-04 17:29N 29°44' W 095°16'0 0.0
2017-Oct-04 17:00N 29°43' W 095°16'0 0.0
2017-Oct-04 16:30N 29°43' W 095°16'0 0.1
2017-Oct-04 16:00N 29°44' W 095°16'0 0.1
2017-Oct-04 15:28N 29°43' W 095°16'  

Dump ship's entire track history